Simpsons, Virginia
Current Conditions -  °F | °C
As of 2:35 AM on Wednesday 22 Oct 2014 (Local Time) from KBCB Reporting Station
Overcast Overcast  
Wind Chill: 41°   Ceiling: 2700
Heat Index: 46°   Visibility: 10mi
Dew Point: 39°   Wind: 12mph
Humidity: 76%   Direction: 320°NW
Pressure: 30.02"   Gusts: NA
Location:  37.0318°N, 80.2402°W
Report Text: KBCB 220635Z AUTO 32010KT 10SM OVC027 08/04 A3002 RMK AO2
Loading
Personal Weather Stations






























Interactive Weather Map New forecast layout! Learn more

10-Day Weather Forecast

Advertisements
Track Severe Weather on mobile